sensor_id;sensor_type;location;lat;lon;timestamp;pressure;altitude;pressure_sealevel;temperature;humidity
12471;BME280;36499;46.484;13.832;2023-06-24T00:01:07;93586.03;;;13.75;100.00
12471;BME280;36499;46.484;13.832;2023-06-24T00:03:35;93589.53;;;13.69;100.00
12471;BME280;36499;46.484;13.832;2023-06-24T00:06:03;93584.78;;;13.60;100.00
12471;BME280;36499;46.484;13.832;2023-06-24T00:08:30;93585.22;;;13.57;100.00
12471;BME280;36499;46.484;13.832;2023-06-24T00:11:00;93586.91;;;13.69;100.00
12471;BME280;36499;46.484;13.832;2023-06-24T00:13:28;93585.22;;;13.75;100.00
12471;BME280;36499;46.484;13.832;2023-06-24T00:15:55;93581.75;;;13.81;99.90
12471;BME280;36499;46.484;13.832;2023-06-24T00:18:23;93582.94;;;13.78;99.32
12471;BME280;36499;46.484;13.832;2023-06-24T00:20:56;93577.50;;;13.80;99.19
12471;BME280;36499;46.484;13.832;2023-06-24T00:23:23;93581.75;;;13.81;99.17
12471;BME280;36499;46.484;13.832;2023-06-24T00:25:51;93572.72;;;13.77;98.77
12471;BME280;36499;46.484;13.832;2023-06-24T00:28:18;93567.75;;;13.69;99.02
12471;BME280;36499;46.484;13.832;2023-06-24T00:30:46;93570.16;;;13.52;99.38
12471;BME280;36499;46.484;13.832;2023-06-24T00:33:13;93571.41;;;13.68;99.09
12471;BME280;36499;46.484;13.832;2023-06-24T00:35:40;93563.53;;;13.68;98.86
12471;BME280;36499;46.484;13.832;2023-06-24T00:38:09;93558.38;;;13.61;99.05
12471;BME280;36499;46.484;13.832;2023-06-24T00:40:37;93550.66;;;13.48;99.84
12471;BME280;36499;46.484;13.832;2023-06-24T00:43:05;93552.19;;;13.37;100.00
12471;BME280;36499;46.484;13.832;2023-06-24T00:45:33;93551.66;;;13.29;100.00
12471;BME280;36499;46.484;13.832;2023-06-24T00:48:00;93548.69;;;13.25;100.00
12471;BME280;36499;46.484;13.832;2023-06-24T00:50:29;93542.44;;;13.26;100.00
12471;BME280;36499;46.484;13.832;2023-06-24T00:52:56;93552.03;;;13.32;100.00
12471;BME280;36499;46.484;13.832;2023-06-24T00:55:24;93550.13;;;13.39;100.00
12471;BME280;36499;46.484;13.832;2023-06-24T00:57:56;93549.84;;;13.29;100.00
12471;BME280;36499;46.484;13.832;2023-06-24T01:00:25;93547.59;;;13.33;100.00
12471;BME280;36499;46.484;13.832;2023-06-24T01:02:53;93541.72;;;13.19;100.00
12471;BME280;36499;46.484;13.832;2023-06-24T01:05:20;93533.69;;;13.14;100.00
12471;BME280;36499;46.484;13.832;2023-06-24T01:07:50;93538.16;;;13.07;100.00
12471;BME280;36499;46.484;13.832;2023-06-24T01:10:23;93545.16;;;13.13;100.00
12471;BME280;36499;46.484;13.832;2023-06-24T01:12:51;93557.06;;;13.09;100.00
12471;BME280;36499;46.484;13.832;2023-06-24T01:15:20;93552.13;;;13.01;100.00
12471;BME280;36499;46.484;13.832;2023-06-24T01:17:56;93557.28;;;13.08;100.00
12471;BME280;36499;46.484;13.832;2023-06-24T01:20:32;93560.75;;;13.02;100.00
12471;BME280;36499;46.484;13.832;2023-06-24T01:23:34;93553.50;;;13.04;100.00
12471;BME280;36499;46.484;13.832;2023-06-24T01:26:31;93553.91;;;13.25;100.00
12471;BME280;36499;46.484;13.832;2023-06-24T01:29:36;93560.59;;;13.21;100.00
12471;BME280;36499;46.484;13.832;2023-06-24T01:32:19;93558.69;;;13.10;100.00
12471;BME280;36499;46.484;13.832;2023-06-24T01:34:55;93559.81;;;13.21;100.00
12471;BME280;36499;46.484;13.832;2023-06-24T01:37:32;93563.66;;;13.18;100.00
12471;BME280;36499;46.484;13.832;2023-06-24T01:40:10;93574.81;;;13.07;100.00
12471;BME280;36499;46.484;13.832;2023-06-24T01:42:41;93563.00;;;12.98;100.00
12471;BME280;36499;46.484;13.832;2023-06-24T01:45:14;93569.69;;;12.94;100.00
12471;BME280;36499;46.484;13.832;2023-06-24T01:47:47;93571.66;;;12.98;100.00
12471;BME280;36499;46.484;13.832;2023-06-24T01:50:19;93571.19;;;13.08;100.00
12471;BME280;36499;46.484;13.832;2023-06-24T01:52:52;93566.78;;;13.02;100.00
12471;BME280;36499;46.484;13.832;2023-06-24T01:55:21;93561.84;;;12.94;100.00
12471;BME280;36499;46.484;13.832;2023-06-24T01:57:52;93564.81;;;12.97;100.00
12471;BME280;36499;46.484;13.832;2023-06-24T02:00:23;93558.75;;;13.04;100.00
12471;BME280;36499;46.484;13.832;2023-06-24T02:02:54;93565.34;;;13.06;100.00
12471;BME280;36499;46.484;13.832;2023-06-24T02:05:23;93563.00;;;12.98;100.00
12471;BME280;36499;46.484;13.832;2023-06-24T02:07:53;93569.53;;;12.89;100.00
12471;BME280;36499;46.484;13.832;2023-06-24T02:10:21;93566.66;;;12.97;100.00
12471;BME280;36499;46.484;13.832;2023-06-24T02:12:52;93569.91;;;12.92;100.00
12471;BME280;36499;46.484;13.832;2023-06-24T02:15:22;93573.28;;;12.99;100.00
12471;BME280;36499;46.484;13.832;2023-06-24T02:17:52;93571.09;;;12.96;100.00
12471;BME280;36499;46.484;13.832;2023-06-24T02:20:23;93589.19;;;12.98;100.00
12471;BME280;36499;46.484;13.832;2023-06-24T02:22:54;93585.13;;;13.02;100.00
12471;BME280;36499;46.484;13.832;2023-06-24T02:25:22;93583.94;;;12.98;100.00
12471;BME280;36499;46.484;13.832;2023-06-24T02:27:51;93575.97;;;12.93;100.00
12471;BME280;36499;46.484;13.832;2023-06-24T02:30:20;93574.53;;;12.90;100.00
12471;BME280;36499;46.484;13.832;2023-06-24T02:32:48;93577.50;;;13.01;100.00
12471;BME280;36499;46.484;13.832;2023-06-24T02:35:16;93578.31;;;13.01;100.00
12471;BME280;36499;46.484;13.832;2023-06-24T02:37:44;93579.50;;;12.98;100.00
12471;BME280;36499;46.484;13.832;2023-06-24T02:40:12;93583.91;;;13.05;99.81
12471;BME280;36499;46.484;13.832;2023-06-24T02:42:39;93582.72;;;13.01;99.07
12471;BME280;36499;46.484;13.832;2023-06-24T02:45:08;93578.78;;;12.91;99.64
12471;BME280;36499;46.484;13.832;2023-06-24T02:47:36;93586.44;;;12.86;100.00
12471;BME280;36499;46.484;13.832;2023-06-24T02:50:08;93589.25;;;12.91;100.00
12471;BME280;36499;46.484;13.832;2023-06-24T02:52:37;93591.22;;;12.96;99.70
12471;BME280;36499;46.484;13.832;2023-06-24T02:55:07;93587.25;;;12.87;99.90
12471;BME280;36499;46.484;13.832;2023-06-24T02:57:35;93590.63;;;12.69;100.00
12471;BME280;36499;46.484;13.832;2023-06-24T03:00:03;93594.31;;;12.62;100.00
12471;BME280;36499;46.484;13.832;2023-06-24T03:02:35;93592.53;;;12.56;100.00
12471;BME280;36499;46.484;13.832;2023-06-24T03:05:03;93600.16;;;12.57;100.00
12471;BME280;36499;46.484;13.832;2023-06-24T03:07:31;93599.31;;;12.63;100.00
12471;BME280;36499;46.484;13.832;2023-06-24T03:10:02;93598.31;;;12.64;100.00
12471;BME280;36499;46.484;13.832;2023-06-24T03:12:31;93599.22;;;12.52;100.00
12471;BME280;36499;46.484;13.832;2023-06-24T03:14:58;93595.03;;;12.44;100.00
12471;BME280;36499;46.484;13.832;2023-06-24T03:17:25;93604.50;;;12.38;100.00
12471;BME280;36499;46.484;13.832;2023-06-24T03:19:52;93605.91;;;12.41;100.00
12471;BME280;36499;46.484;13.832;2023-06-24T03:22:21;93605.03;;;12.54;100.00
12471;BME280;36499;46.484;13.832;2023-06-24T03:24:48;93600.97;;;12.58;100.00
12471;BME280;36499;46.484;13.832;2023-06-24T03:27:18;93605.34;;;12.64;100.00
12471;BME280;36499;46.484;13.832;2023-06-24T03:29:45;93602.53;;;12.65;100.00
12471;BME280;36499;46.484;13.832;2023-06-24T03:32:12;93602.59;;;12.52;100.00
12471;BME280;36499;46.484;13.832;2023-06-24T03:34:39;93604.75;;;12.30;100.00
12471;BME280;36499;46.484;13.832;2023-06-24T03:37:06;93604.56;;;12.25;100.00
12471;BME280;36499;46.484;13.832;2023-06-24T03:39:36;93597.28;;;12.34;100.00
12471;BME280;36499;46.484;13.832;2023-06-24T03:42:03;93596.50;;;12.33;100.00
12471;BME280;36499;46.484;13.832;2023-06-24T03:44:32;93600.91;;;12.39;100.00
12471;BME280;36499;46.484;13.832;2023-06-24T03:46:59;93594.38;;;12.48;100.00
12471;BME280;36499;46.484;13.832;2023-06-24T03:49:26;93598.78;;;12.55;100.00
12471;BME280;36499;46.484;13.832;2023-06-24T03:51:53;93604.16;;;12.60;100.00
12471;BME280;36499;46.484;13.832;2023-06-24T03:54:20;93603.25;;;12.47;100.00
12471;BME280;36499;46.484;13.832;2023-06-24T03:56:47;93601.16;;;12.56;100.00
12471;BME280;36499;46.484;13.832;2023-06-24T03:59:14;93606.78;;;12.60;100.00
12471;BME280;36499;46.484;13.832;2023-06-24T04:01:42;93608.56;;;12.66;100.00
12471;BME280;36499;46.484;13.832;2023-06-24T04:04:09;93611.00;;;12.61;100.00
12471;BME280;36499;46.484;13.832;2023-06-24T04:06:36;93602.53;;;12.65;100.00
12471;BME280;36499;46.484;13.832;2023-06-24T04:09:03;93601.09;;;12.69;99.59
12471;BME280;36499;46.484;13.832;2023-06-24T04:11:32;93609.56;;;12.65;99.70
12471;BME280;36499;46.484;13.832;2023-06-24T04:13:59;93600.72;;;12.66;99.41
12471;BME280;36499;46.484;13.832;2023-06-24T04:16:26;93615.22;;;12.62;99.33
12471;BME280;36499;46.484;13.832;2023-06-24T04:18:54;93609.94;;;12.68;99.28
12471;BME280;36499;46.484;13.832;2023-06-24T04:21:21;93618.78;;;12.74;99.47
12471;BME280;36499;46.484;13.832;2023-06-24T04:23:48;93621.09;;;12.57;99.37
12471;BME280;36499;46.484;13.832;2023-06-24T04:26:16;93627.94;;;12.58;99.64
12471;BME280;36499;46.484;13.832;2023-06-24T04:28:43;93631.50;;;12.64;99.32
12471;BME280;36499;46.484;13.832;2023-06-24T04:31:10;93628.13;;;12.57;99.92
12471;BME280;36499;46.484;13.832;2023-06-24T04:33:37;93625.75;;;12.55;100.00
12471;BME280;36499;46.484;13.832;2023-06-24T04:36:05;93625.38;;;12.52;100.00
12471;BME280;36499;46.484;13.832;2023-06-24T04:38:32;93632.34;;;12.58;100.00
12471;BME280;36499;46.484;13.832;2023-06-24T04:40:59;93630.13;;;12.61;100.00
12471;BME280;36499;46.484;13.832;2023-06-24T04:43:27;93632.34;;;12.58;100.00
12471;BME280;36499;46.484;13.832;2023-06-24T04:45:54;93626.88;;;12.66;100.00
12471;BME280;36499;46.484;13.832;2023-06-24T04:48:23;93628.06;;;12.70;100.00
12471;BME280;36499;46.484;13.832;2023-06-24T04:50:50;93625.59;;;12.75;100.00
12471;BME280;36499;46.484;13.832;2023-06-24T04:53:20;93629.56;;;12.84;100.00
12471;BME280;36499;46.484;13.832;2023-06-24T04:55:47;93623.56;;;12.77;100.00
12471;BME280;36499;46.484;13.832;2023-06-24T04:58:14;93625.59;;;12.75;100.00
12471;BME280;36499;46.484;13.832;2023-06-24T05:00:43;93626.13;;;12.83;100.00
12471;BME280;36499;46.484;13.832;2023-06-24T05:03:10;93632.94;;;12.91;100.00
12471;BME280;36499;46.484;13.832;2023-06-24T05:05:37;93636.72;;;12.95;100.00
12471;BME280;36499;46.484;13.832;2023-06-24T05:08:16;93634.63;;;13.10;100.00
12471;BME280;36499;46.484;13.832;2023-06-24T05:10:44;93640.22;;;13.14;100.00
12471;BME280;36499;46.484;13.832;2023-06-24T05:13:11;93642.78;;;13.20;100.00
12471;BME280;36499;46.484;13.832;2023-06-24T05:15:38;93644.41;;;13.39;100.00
12471;BME280;36499;46.484;13.832;2023-06-24T05:18:05;93652.44;;;13.44;99.93
12471;BME280;36499;46.484;13.832;2023-06-24T05:20:32;93649.09;;;13.56;99.96
12471;BME280;36499;46.484;13.832;2023-06-24T05:22:59;93646.56;;;13.67;99.41
12471;BME280;36499;46.484;13.832;2023-06-24T05:25:26;93653.28;;;13.81;98.68
12471;BME280;36499;46.484;13.832;2023-06-24T05:27:55;93650.38;;;13.89;98.11
12471;BME280;36499;46.484;13.832;2023-06-24T05:30:22;93646.72;;;13.90;97.50
12471;BME280;36499;46.484;13.832;2023-06-24T05:32:49;93644.19;;;14.02;97.49
12471;BME280;36499;46.484;13.832;2023-06-24T05:35:16;93647.06;;;14.12;97.29
12471;BME280;36499;46.484;13.832;2023-06-24T05:37:43;93652.25;;;14.19;97.66
12471;BME280;36499;46.484;13.832;2023-06-24T05:40:11;93648.97;;;14.23;97.49
12471;BME280;36499;46.484;13.832;2023-06-24T05:42:39;93646.34;;;14.42;97.98
12471;BME280;36499;46.484;13.832;2023-06-24T05:45:08;93658.63;;;14.59;97.61
12471;BME280;36499;46.484;13.832;2023-06-24T05:47:36;93655.72;;;14.79;97.38
12471;BME280;36499;46.484;13.832;2023-06-24T05:50:05;93662.81;;;14.78;96.69
12471;BME280;36499;46.484;13.832;2023-06-24T05:52:32;93669.91;;;14.89;96.14
12471;BME280;36499;46.484;13.832;2023-06-24T05:54:59;93671.72;;;14.89;95.60
12471;BME280;36499;46.484;13.832;2023-06-24T05:57:27;93669.13;;;15.01;94.43
12471;BME280;36499;46.484;13.832;2023-06-24T05:59:54;93667.53;;;15.00;93.18
12471;BME280;36499;46.484;13.832;2023-06-24T06:02:22;93670.09;;;15.18;92.94
12471;BME280;36499;46.484;13.832;2023-06-24T06:04:50;93663.34;;;15.33;92.16
12471;BME280;36499;46.484;13.832;2023-06-24T06:07:17;93669.09;;;15.42;91.75
12471;BME280;36499;46.484;13.832;2023-06-24T06:09:44;93669.34;;;15.64;92.03
12471;BME280;36499;46.484;13.832;2023-06-24T06:12:11;93666.28;;;15.78;92.93
12471;BME280;36499;46.484;13.832;2023-06-24T06:14:38;93668.78;;;15.97;91.34
12471;BME280;36499;46.484;13.832;2023-06-24T06:17:05;93661.66;;;16.09;90.55
12471;BME280;36499;46.484;13.832;2023-06-24T06:19:34;93667.69;;;16.21;90.04
12471;BME280;36499;46.484;13.832;2023-06-24T06:22:01;93672.59;;;16.29;89.78
12471;BME280;36499;46.484;13.832;2023-06-24T06:24:28;93666.41;;;16.35;88.39
12471;BME280;36499;46.484;13.832;2023-06-24T06:26:57;93664.63;;;16.52;89.48
12471;BME280;36499;46.484;13.832;2023-06-24T06:29:25;93664.34;;;16.77;89.18
12471;BME280;36499;46.484;13.832;2023-06-24T06:31:52;93665.00;;;16.84;87.20
12471;BME280;36499;46.484;13.832;2023-06-24T06:34:20;93667.47;;;16.91;85.20
12471;BME280;36499;46.484;13.832;2023-06-24T06:36:49;93661.19;;;17.08;85.58
12471;BME280;36499;46.484;13.832;2023-06-24T06:39:16;93662.88;;;17.31;84.67
12471;BME280;36499;46.484;13.832;2023-06-24T06:41:43;93671.91;;;17.52;83.89
12471;BME280;36499;46.484;13.832;2023-06-24T06:44:10;93658.00;;;17.73;82.91
12471;BME280;36499;46.484;13.832;2023-06-24T06:46:37;93660.41;;;17.91;82.56
12471;BME280;36499;46.484;13.832;2023-06-24T06:49:04;93650.53;;;18.03;82.07
12471;BME280;36499;46.484;13.832;2023-06-24T06:51:31;93653.72;;;18.05;81.43
12471;BME280;36499;46.484;13.832;2023-06-24T06:54:01;93652.16;;;18.26;81.35
12471;BME280;36499;46.484;13.832;2023-06-24T06:56:28;93651.97;;;18.33;79.69
12471;BME280;36499;46.484;13.832;2023-06-24T06:58:55;93654.47;;;18.22;78.40
12471;BME280;36499;46.484;13.832;2023-06-24T07:01:22;93658.47;;;18.25;78.22
12471;BME280;36499;46.484;13.832;2023-06-24T07:03:50;93657.25;;;18.33;80.24
12471;BME280;36499;46.484;13.832;2023-06-24T07:06:18;93656.38;;;18.27;80.65
12471;BME280;36499;46.484;13.832;2023-06-24T07:08:46;93656.81;;;18.41;81.39
12471;BME280;36499;46.484;13.832;2023-06-24T07:11:15;93661.53;;;18.39;79.41
12471;BME280;36499;46.484;13.832;2023-06-24T07:13:42;93656.41;;;18.49;79.44
12471;BME280;36499;46.484;13.832;2023-06-24T07:16:10;93658.16;;;18.43;79.02
12471;BME280;36499;46.484;13.832;2023-06-24T07:18:37;93655.66;;;18.53;77.70
12471;BME280;36499;46.484;13.832;2023-06-24T07:21:04;93657.06;;;18.61;79.32
12471;BME280;36499;46.484;13.832;2023-06-24T07:23:31;93660.00;;;18.64;78.00
12471;BME280;36499;46.484;13.832;2023-06-24T07:25:58;93646.66;;;18.76;78.23
12471;BME280;36499;46.484;13.832;2023-06-24T07:28:26;93658.63;;;18.84;77.19
12471;BME280;36499;46.484;13.832;2023-06-24T07:30:53;93658.47;;;18.90;77.71
12471;BME280;36499;46.484;13.832;2023-06-24T07:33:21;93656.75;;;19.06;78.68
12471;BME280;36499;46.484;13.832;2023-06-24T07:35:48;93653.09;;;19.12;77.96
12471;BME280;36499;46.484;13.832;2023-06-24T07:38:15;93655.50;;;19.13;77.48
12471;BME280;36499;46.484;13.832;2023-06-24T07:40:42;93659.28;;;19.23;77.13
12471;BME280;36499;46.484;13.832;2023-06-24T07:43:09;93658.75;;;19.21;74.20
12471;BME280;36499;46.484;13.832;2023-06-24T07:45:37;93659.84;;;19.25;74.51
12471;BME280;36499;46.484;13.832;2023-06-24T07:48:05;93653.78;;;19.29;73.74
12471;BME280;36499;46.484;13.832;2023-06-24T07:50:33;93658.38;;;19.39;75.28
12471;BME280;36499;46.484;13.832;2023-06-24T07:53:00;93660.34;;;19.53;74.84
12471;BME280;36499;46.484;13.832;2023-06-24T07:55:28;93656.50;;;19.66;74.21
12471;BME280;36499;46.484;13.832;2023-06-24T07:57:55;93665.34;;;19.87;72.76
12471;BME280;36499;46.484;13.832;2023-06-24T08:00:24;93655.97;;;20.11;70.40
12471;BME280;36499;46.484;13.832;2023-06-24T08:02:52;93658.50;;;20.33;67.24
12471;BME280;36499;46.484;13.832;2023-06-24T08:05:21;93652.75;;;20.56;66.58
12471;BME280;36499;46.484;13.832;2023-06-24T08:07:48;93663.94;;;20.68;64.79
12471;BME280;36499;46.484;13.832;2023-06-24T08:10:15;93662.31;;;20.62;62.07
12471;BME280;36499;46.484;13.832;2023-06-24T08:12:42;93658.09;;;20.61;62.35
12471;BME280;36499;46.484;13.832;2023-06-24T08:15:10;93655.41;;;20.56;61.66
12471;BME280;36499;46.484;13.832;2023-06-24T08:17:37;93660.19;;;20.54;60.02
12471;BME280;36499;46.484;13.832;2023-06-24T08:20:07;93660.47;;;20.63;59.68
12471;BME280;36499;46.484;13.832;2023-06-24T08:22:34;93659.72;;;20.72;51.52
12471;BME280;36499;46.484;13.832;2023-06-24T08:25:01;93655.25;;;20.93;55.32
12471;BME280;36499;46.484;13.832;2023-06-24T08:27:28;93663.56;;;21.27;54.80
12471;BME280;36499;46.484;13.832;2023-06-24T08:29:55;93654.81;;;21.51;52.17
12471;BME280;36499;46.484;13.832;2023-06-24T08:32:22;93652.41;;;21.80;51.62
12471;BME280;36499;46.484;13.832;2023-06-24T08:34:50;93659.84;;;22.09;57.59
12471;BME280;36499;46.484;13.832;2023-06-24T08:37:18;93655.28;;;22.24;54.44
12471;BME280;36499;46.484;13.832;2023-06-24T08:39:45;93653.66;;;22.43;51.96
12471;BME280;36499;46.484;13.832;2023-06-24T08:42:12;93661.56;;;22.59;49.66
12471;BME280;36499;46.484;13.832;2023-06-24T08:44:40;93662.31;;;22.64;44.90
12471;BME280;36499;46.484;13.832;2023-06-24T08:47:07;93654.69;;;22.47;44.11
12471;BME280;36499;46.484;13.832;2023-06-24T08:49:42;93659.72;;;22.49;45.52
12471;BME280;36499;46.484;13.832;2023-06-24T08:52:14;93658.66;;;22.50;47.04
12471;BME280;36499;46.484;13.832;2023-06-24T08:54:50;93667.19;;;22.42;45.70
12471;BME280;36499;46.484;13.832;2023-06-24T08:57:17;93658.91;;;22.48;47.36
12471;BME280;36499;46.484;13.832;2023-06-24T08:59:45;93661.28;;;22.60;48.12
12471;BME280;36499;46.484;13.832;2023-06-24T09:02:12;93659.13;;;22.67;46.54
12471;BME280;36499;46.484;13.832;2023-06-24T09:04:40;93666.53;;;22.80;49.44
12471;BME280;36499;46.484;13.832;2023-06-24T09:07:08;93667.72;;;23.08;48.02
12471;BME280;36499;46.484;13.832;2023-06-24T09:09:44;93672.13;;;23.28;50.28
12471;BME280;36499;46.484;13.832;2023-06-24T09:12:14;93668.59;;;23.42;50.47
12471;BME280;36499;46.484;13.832;2023-06-24T09:14:41;93668.84;;;23.41;47.83
12471;BME280;36499;46.484;13.832;2023-06-24T09:17:09;93670.47;;;23.37;45.74
12471;BME280;36499;46.484;13.832;2023-06-24T09:19:36;93673.41;;;23.35;45.66
12471;BME280;36499;46.484;13.832;2023-06-24T09:22:05;93675.03;;;23.31;47.54
12471;BME280;36499;46.484;13.832;2023-06-24T09:24:33;93669.16;;;23.34;46.12
12471;BME280;36499;46.484;13.832;2023-06-24T09:27:03;93673.16;;;23.71;44.72
12471;BME280;36499;46.484;13.832;2023-06-24T09:29:33;93668.56;;;24.10;47.54
12471;BME280;36499;46.484;13.832;2023-06-24T09:32:04;93670.84;;;24.27;44.19
12471;BME280;36499;46.484;13.832;2023-06-24T09:34:32;93669.81;;;24.23;40.82
12471;BME280;36499;46.484;13.832;2023-06-24T09:37:00;93667.22;;;23.84;41.38
12471;BME280;36499;46.484;13.832;2023-06-24T09:39:40;93654.41;;;23.86;42.72
12471;BME280;36499;46.484;13.832;2023-06-24T09:42:08;93662.13;;;23.87;41.88
12471;BME280;36499;46.484;13.832;2023-06-24T09:44:36;93661.06;;;23.88;43.62
12471;BME280;36499;46.484;13.832;2023-06-24T09:47:04;93657.84;;;23.86;44.82
12471;BME280;36499;46.484;13.832;2023-06-24T09:49:31;93658.88;;;23.90;45.11
12471;BME280;36499;46.484;13.832;2023-06-24T09:51:59;93660.53;;;23.86;41.05
12471;BME280;36499;46.484;13.832;2023-06-24T09:54:28;93659.69;;;23.91;42.45
12471;BME280;36499;46.484;13.832;2023-06-24T09:57:01;93664.78;;;23.87;42.40
12471;BME280;36499;46.484;13.832;2023-06-24T09:59:31;93664.53;;;23.84;44.38
12471;BME280;36499;46.484;13.832;2023-06-24T10:02:00;93661.34;;;23.82;43.96
12471;BME280;36499;46.484;13.832;2023-06-24T10:04:29;93664.91;;;23.72;43.75
12471;BME280;36499;46.484;13.832;2023-06-24T10:06:58;93674.56;;;23.63;42.91
12471;BME280;36499;46.484;13.832;2023-06-24T10:09:26;93664.50;;;23.55;44.03
12471;BME280;36499;46.484;13.832;2023-06-24T10:11:53;93667.81;;;23.42;44.15
12471;BME280;36499;46.484;13.832;2023-06-24T10:14:22;93655.19;;;23.14;42.90
12471;BME280;36499;46.484;13.832;2023-06-24T10:16:49;93655.28;;;23.42;45.98
12471;BME280;36499;46.484;13.832;2023-06-24T10:19:20;93660.69;;;23.27;44.03
12471;BME280;36499;46.484;13.832;2023-06-24T10:21:51;93651.34;;;23.30;41.95
12471;BME280;36499;46.484;13.832;2023-06-24T10:24:30;93657.38;;;23.51;44.06
12471;BME280;36499;46.484;13.832;2023-06-24T10:27:02;93656.88;;;23.77;46.64
12471;BME280;36499;46.484;13.832;2023-06-24T10:29:35;93654.16;;;23.82;43.08
12471;BME280;36499;46.484;13.832;2023-06-24T10:32:05;93648.84;;;23.82;45.32
12471;BME280;36499;46.484;13.832;2023-06-24T10:34:34;93647.78;;;23.50;43.93
12471;BME280;36499;46.484;13.832;2023-06-24T10:37:10;93639.81;;;23.50;44.93
12471;BME280;36499;46.484;13.832;2023-06-24T10:39:56;93645.56;;;22.79;43.56
12471;BME280;36499;46.484;13.832;2023-06-24T10:42:37;93654.56;;;22.83;44.86
12471;BME280;36499;46.484;13.832;2023-06-24T10:45:18;93645.97;;;22.96;42.89
12471;BME280;36499;46.484;13.832;2023-06-24T10:47:48;93644.75;;;23.22;46.81
12471;BME280;36499;46.484;13.832;2023-06-24T10:50:20;93649.75;;;23.29;44.39
12471;BME280;36499;46.484;13.832;2023-06-24T10:52:49;93647.94;;;23.24;44.89
12471;BME280;36499;46.484;13.832;2023-06-24T10:55:19;93649.75;;;23.29;45.53
12471;BME280;36499;46.484;13.832;2023-06-24T10:57:46;93657.66;;;23.44;45.67
12471;BME280;36499;46.484;13.832;2023-06-24T11:00:15;93651.47;;;23.54;45.16
12471;BME280;36499;46.484;13.832;2023-06-24T11:02:44;93653.25;;;23.63;46.21
12471;BME280;36499;46.484;13.832;2023-06-24T11:05:11;93642.59;;;23.63;43.14
12471;BME280;36499;46.484;13.832;2023-06-24T11:07:38;93638.50;;;23.76;47.24
12471;BME280;36499;46.484;13.832;2023-06-24T11:10:09;93636.03;;;23.84;46.03
12471;BME280;36499;46.484;13.832;2023-06-24T11:12:39;93630.03;;;23.98;47.23
12471;BME280;36499;46.484;13.832;2023-06-24T11:15:08;93629.16;;;24.07;45.54
12471;BME280;36499;46.484;13.832;2023-06-24T11:17:39;93629.72;;;24.04;46.67
12471;BME280;36499;46.484;13.832;2023-06-24T11:20:11;93628.88;;;24.09;45.11
12471;BME280;36499;46.484;13.832;2023-06-24T11:46:07;93619.81;;;24.10;44.20
12471;BME280;36499;46.484;13.832;2023-06-24T11:48:40;93603.38;;;24.50;43.67
12471;BME280;36499;46.484;13.832;2023-06-24T11:51:12;93594.09;;;24.90;43.80
12471;BME280;36499;46.484;13.832;2023-06-24T11:53:41;93582.97;;;24.83;41.77
12471;BME280;36499;46.484;13.832;2023-06-24T11:56:09;93592.81;;;24.88;43.72
12471;BME280;36499;46.484;13.832;2023-06-24T11:58:36;93588.06;;;24.79;42.57
12471;BME280;36499;46.484;13.832;2023-06-24T12:01:07;93585.00;;;25.10;43.86
12471;BME280;36499;46.484;13.832;2023-06-24T12:03:34;93581.44;;;25.52;41.97
12471;BME280;36499;46.484;13.832;2023-06-24T12:06:01;93585.69;;;25.53;42.54
12471;BME280;36499;46.484;13.832;2023-06-24T12:08:28;93592.00;;;25.75;44.91
12471;BME280;36499;46.484;13.832;2023-06-24T12:10:55;93597.81;;;25.77;41.73
12471;BME280;36499;46.484;13.832;2023-06-24T12:13:22;93590.16;;;25.57;42.44
12471;BME280;36499;46.484;13.832;2023-06-24T12:15:49;93597.31;;;25.24;40.77
12471;BME280;36499;46.484;13.832;2023-06-24T12:18:18;93598.44;;;24.81;43.68
12471;BME280;36499;46.484;13.832;2023-06-24T12:20:45;93605.22;;;24.73;41.57
12471;BME280;36499;46.484;13.832;2023-06-24T12:23:12;93596.63;;;24.58;43.27
12471;BME280;36499;46.484;13.832;2023-06-24T12:25:39;93599.03;;;24.35;43.57
12471;BME280;36499;46.484;13.832;2023-06-24T12:28:06;93605.28;;;24.26;44.38
12471;BME280;36499;46.484;13.832;2023-06-24T12:30:33;93603.41;;;24.26;45.72
12471;BME280;36499;46.484;13.832;2023-06-24T12:33:01;93611.41;;;23.98;43.20
12471;BME280;36499;46.484;13.832;2023-06-24T12:35:30;93606.44;;;23.62;42.43
12471;BME280;36499;46.484;13.832;2023-06-24T12:37:57;93623.88;;;23.39;43.10
12471;BME280;36499;46.484;13.832;2023-06-24T12:40:24;93617.34;;;23.22;42.72
12471;BME280;36499;46.484;13.832;2023-06-24T12:42:51;93616.78;;;23.25;43.26
12471;BME280;36499;46.484;13.832;2023-06-24T12:45:18;93624.25;;;23.28;43.84
12471;BME280;36499;46.484;13.832;2023-06-24T12:47:45;93617.34;;;23.22;46.08
12471;BME280;36499;46.484;13.832;2023-06-24T12:50:12;93622.44;;;22.74;45.44
12471;BME280;36499;46.484;13.832;2023-06-24T12:52:41;93623.88;;;22.41;45.96
12471;BME280;36499;46.484;13.832;2023-06-24T12:55:08;93622.56;;;22.44;46.66
12471;BME280;36499;46.484;13.832;2023-06-24T12:57:36;93621.00;;;22.28;48.02
12471;BME280;36499;46.484;13.832;2023-06-24T13:00:05;93620.34;;;22.71;47.37
12471;BME280;36499;46.484;13.832;2023-06-24T13:02:32;93612.28;;;22.81;46.02
12471;BME280;36499;46.484;13.832;2023-06-24T13:04:59;93617.22;;;22.98;45.71
12471;BME280;36499;46.484;13.832;2023-06-24T13:07:26;93617.44;;;23.12;47.45
12471;BME280;36499;46.484;13.832;2023-06-24T13:09:54;93621.78;;;22.98;45.15
12471;BME280;36499;46.484;13.832;2023-06-24T13:12:22;93630.19;;;23.10;45.89
12471;BME280;36499;46.484;13.832;2023-06-24T13:14:49;93630.09;;;23.25;49.80
12471;BME280;36499;46.484;13.832;2023-06-24T13:17:16;93628.00;;;23.61;50.05
12471;BME280;36499;46.484;13.832;2023-06-24T13:19:43;93629.50;;;23.72;47.89